Time;durP1;ratioP1;P1;durP2;ratioP2;P2;SDS_P1;SDS_P2;PMS_P1;PMS_P2;Temp;Humidity;BMP_temperature;BMP_pressure;BME280_temperature;BME280_humidity;BME280_pressure;Samples;Min_cycle;Max_cycle;Signal;HPM_P1;HPM_P2
2021/01/29 00:00:40;;;;;;;7.47;6.23;;;;;;;;;;5097763;28;20212;-67
2021/01/29 00:03:10;;;;;;;8.40;6.33;;;;;;;;;;5097891;28;20197;-68
2021/01/29 00:05:38;;;;;;;8.60;6.27;;;;;;;;;;5097572;28;20231;-70
2021/01/29 00:08:06;;;;;;;7.67;6.13;;;;;;;;;;5097945;28;20668;-69
2021/01/29 00:10:33;;;;;;;9.53;6.67;;;;;;;;;;5097738;28;20573;-69
2021/01/29 00:13:01;;;;;;;9.13;6.13;;;;;;;;;;5097571;28;20209;-68
2021/01/29 00:15:29;;;;;;;8.43;6.93;;;;;;;;;;5097516;28;20734;-68
2021/01/29 00:17:56;;;;;;;9.33;8.13;;;;;;;;;;5097617;28;20286;-68
2021/01/29 00:20:24;;;;;;;9.10;6.97;;;;;;;;;;5097605;28;20568;-67
2021/01/29 00:22:52;;;;;;;8.67;6.77;;;;;;;;;;5097904;28;20255;-69
2021/01/29 00:25:21;;;;;;;12.13;6.87;;;;;;;;;;5097727;28;20225;-70
2021/01/29 00:27:48;;;;;;;8.57;6.87;;;;;;;;;;5097769;28;20292;-70
2021/01/29 00:30:16;;;;;;;14.00;7.90;;;;;;;;;;5098591;28;20205;-69
2021/01/29 00:32:44;;;;;;;13.90;8.80;;;;;;;;;;5098356;28;20589;-73
2021/01/29 00:35:12;;;;;;;11.67;8.60;;;;;;;;;;5101483;28;20262;-69
2021/01/29 00:37:40;;;;;;;13.27;8.30;;;;;;;;;;5101837;28;20224;-69
2021/01/29 00:40:08;;;;;;;8.90;7.73;;;;;;;;;;5101222;28;20297;-70
2021/01/29 00:42:35;;;;;;;12.27;8.33;;;;;;;;;;5101512;28;20206;-69
2021/01/29 00:45:02;;;;;;;11.10;8.50;;;;;;;;;;5101138;28;20256;-69
2021/01/29 00:47:29;;;;;;;10.17;8.17;;;;;;;;;;5101395;28;20229;-67
2021/01/29 00:49:57;;;;;;;11.53;8.57;;;;;;;;;;5101063;28;20573;-70
2021/01/29 00:52:23;;;;;;;11.93;8.23;;;;;;;;;;5101197;28;20212;-69
2021/01/29 00:54:50;;;;;;;11.87;8.97;;;;;;;;;;5101137;28;20225;-69
2021/01/29 00:57:17;;;;;;;12.33;8.87;;;;;;;;;;5101235;28;20206;-69
2021/01/29 00:59:44;;;;;;;10.97;8.47;;;;;;;;;;5100699;28;20743;-69
2021/01/29 01:02:11;;;;;;;9.17;8.23;;;;;;;;;;5101295;28;20236;-69
2021/01/29 01:04:38;;;;;;;10.73;8.87;;;;;;;;;;5101049;28;20229;-70
2021/01/29 01:07:06;;;;;;;10.93;8.80;;;;;;;;;;5100734;28;20596;-69
2021/01/29 01:09:33;;;;;;;10.57;8.47;;;;;;;;;;5100803;28;20552;-69
2021/01/29 01:12:00;;;;;;;11.27;8.93;;;;;;;;;;5100913;28;20209;-69
2021/01/29 01:14:27;;;;;;;9.50;8.27;;;;;;;;;;5100963;28;20226;-69
2021/01/29 01:16:54;;;;;;;10.13;8.20;;;;;;;;;;5100755;28;20284;-69
2021/01/29 01:19:21;;;;;;;10.07;7.97;;;;;;;;;;5100578;28;20228;-69
2021/01/29 01:21:48;;;;;;;9.33;8.17;;;;;;;;;;5100541;28;20205;-69
2021/01/29 01:24:16;;;;;;;11.00;8.50;;;;;;;;;;5100450;28;20712;-69
2021/01/29 01:26:43;;;;;;;12.80;8.10;;;;;;;;;;5100181;28;20225;-69
2021/01/29 01:29:10;;;;;;;11.27;7.63;;;;;;;;;;5100201;28;20762;-69
2021/01/29 01:31:37;;;;;;;9.03;7.57;;;;;;;;;;5100281;28;20210;-69
2021/01/29 01:34:04;;;;;;;11.03;8.03;;;;;;;;;;5100246;28;20254;-69
2021/01/29 01:36:31;;;;;;;10.13;7.63;;;;;;;;;;5100496;28;20202;-69
2021/01/29 01:38:58;;;;;;;10.70;7.57;;;;;;;;;;5100254;28;20313;-69
2021/01/29 01:41:26;;;;;;;8.77;7.20;;;;;;;;;;5100316;28;20284;-69
2021/01/29 01:43:53;;;;;;;10.27;7.47;;;;;;;;;;5100094;28;20216;-69
2021/01/29 01:46:20;;;;;;;10.53;7.60;;;;;;;;;;5099204;28;20677;-69
2021/01/29 01:48:58;;;;;;;10.13;7.57;;;;;;;;;;5100351;28;20258;-69
2021/01/29 01:51:31;;;;;;;7.50;6.40;;;;;;;;;;5100360;28;20272;-69
2021/01/29 01:53:59;;;;;;;11.73;6.67;;;;;;;;;;5100314;28;20209;-69
2021/01/29 01:56:30;;;;;;;12.57;7.07;;;;;;;;;;5101049;28;20205;-69
2021/01/29 01:58:59;;;;;;;10.53;7.50;;;;;;;;;;5100508;28;20212;-68
2021/01/29 02:01:26;;;;;;;9.33;7.37;;;;;;;;;;5100552;28;20379;-68
2021/01/29 02:03:54;;;;;;;8.83;6.83;;;;;;;;;;5099856;28;20209;-68
2021/01/29 02:06:22;;;;;;;8.03;6.77;;;;;;;;;;5099924;28;20228;-68
2021/01/29 02:08:50;;;;;;;11.70;7.37;;;;;;;;;;5099651;28;20223;-68
2021/01/29 02:11:19;;;;;;;9.67;7.77;;;;;;;;;;5099634;28;20585;-68
2021/01/29 02:13:47;;;;;;;9.83;7.13;;;;;;;;;;5099291;28;20205;-68
2021/01/29 02:16:17;;;;;;;8.83;7.20;;;;;;;;;;5099977;28;20293;-68
2021/01/29 02:18:53;;;;;;;8.43;6.97;;;;;;;;;;5099645;28;20255;-68
2021/01/29 02:21:37;;;;;;;9.37;7.10;;;;;;;;;;5099479;28;20251;-68
2021/01/29 02:24:28;;;;;;;8.60;6.67;;;;;;;;;;5089337;28;20205;-68
2021/01/29 02:27:18;;;;;;;8.93;6.50;;;;;;;;;;5042483;28;20230;-68
2021/01/29 02:30:12;;;;;;;9.23;7.03;;;;;;;;;;5098984;28;20198;-69
2021/01/29 02:32:54;;;;;;;9.20;7.27;;;;;;;;;;5099453;28;20205;-68
2021/01/29 02:35:39;;;;;;;11.10;7.20;;;;;;;;;;5086518;28;20243;-68
2021/01/29 02:38:26;;;;;;;7.07;6.37;;;;;;;;;;5068393;28;20237;-68
2021/01/29 02:40:57;;;;;;;9.73;6.87;;;;;;;;;;5099482;28;20288;-68
2021/01/29 02:43:32;;;;;;;10.67;7.00;;;;;;;;;;5098831;28;20634;-68
2021/01/29 02:46:03;;;;;;;10.00;7.40;;;;;;;;;;5098830;28;20229;-69
2021/01/29 02:48:34;;;;;;;8.00;6.60;;;;;;;;;;5099128;28;20741;-68
2021/01/29 02:51:04;;;;;;;7.60;6.77;;;;;;;;;;5095719;28;20208;-68
2021/01/29 02:53:37;;;;;;;10.17;6.93;;;;;;;;;;5098665;28;20285;-68
2021/01/29 02:56:17;;;;;;;8.97;7.13;;;;;;;;;;5098045;28;20278;-68
2021/01/29 02:58:49;;;;;;;8.73;6.90;;;;;;;;;;5090028;28;20197;-68
2021/01/29 03:01:19;;;;;;;10.47;8.00;;;;;;;;;;5098828;28;20431;-68
2021/01/29 03:03:51;;;;;;;9.50;7.87;;;;;;;;;;5098907;28;20201;-67
2021/01/29 03:06:21;;;;;;;9.30;7.13;;;;;;;;;;5085807;28;20197;-67
2021/01/29 03:08:53;;;;;;;11.33;7.80;;;;;;;;;;5098382;28;20201;-67
2021/01/29 03:11:21;;;;;;;9.30;7.17;;;;;;;;;;5098493;28;20280;-67
2021/01/29 03:13:53;;;;;;;11.60;7.67;;;;;;;;;;5098164;28;20687;-67
2021/01/29 03:16:22;;;;;;;8.30;7.13;;;;;;;;;;5098352;28;20688;-67
2021/01/29 03:18:52;;;;;;;10.77;7.93;;;;;;;;;;5098219;28;20209;-67
2021/01/29 03:21:22;;;;;;;9.30;7.37;;;;;;;;;;5098628;28;20210;-67
2021/01/29 03:23:51;;;;;;;9.30;7.00;;;;;;;;;;5098240;28;20202;-67
2021/01/29 03:26:20;;;;;;;8.60;6.87;;;;;;;;;;5098687;28;20209;-67
2021/01/29 03:28:49;;;;;;;9.03;8.03;;;;;;;;;;5097872;28;20680;-67
2021/01/29 03:31:19;;;;;;;12.57;7.47;;;;;;;;;;5098197;28;20342;-67
2021/01/29 03:33:46;;;;;;;10.30;8.17;;;;;;;;;;5098012;28;20240;-68
2021/01/29 03:36:15;;;;;;;9.63;7.83;;;;;;;;;;5097937;28;20309;-70
2021/01/29 03:38:44;;;;;;;12.23;8.00;;;;;;;;;;5098092;28;20240;-67
2021/01/29 03:41:15;;;;;;;9.03;7.53;;;;;;;;;;5098148;28;20280;-67
2021/01/29 03:43:48;;;;;;;10.97;7.53;;;;;;;;;;5098046;28;20660;-67
2021/01/29 03:46:19;;;;;;;10.57;7.97;;;;;;;;;;5098232;28;20236;-66
2021/01/29 03:48:50;;;;;;;12.73;7.93;;;;;;;;;;5098891;28;20604;-68
2021/01/29 03:51:19;;;;;;;10.27;7.97;;;;;;;;;;5098727;28;20284;-67
2021/01/29 03:53:50;;;;;;;11.43;7.07;;;;;;;;;;5098216;28;20210;-68
2021/01/29 03:56:28;;;;;;;7.97;7.03;;;;;;;;;;5098156;28;20293;-68
2021/01/29 03:59:00;;;;;;;9.07;7.70;;;;;;;;;;5097745;28;20602;-67
2021/01/29 04:01:30;;;;;;;10.00;7.87;;;;;;;;;;5095868;28;20631;-69
2021/01/29 04:04:02;;;;;;;8.10;7.17;;;;;;;;;;5097905;28;20246;-69
2021/01/29 04:06:31;;;;;;;11.73;7.50;;;;;;;;;;5098026;28;20208;-67
2021/01/29 04:09:02;;;;;;;10.00;7.50;;;;;;;;;;5100417;28;20205;-67
2021/01/29 04:11:33;;;;;;;9.27;7.53;;;;;;;;;;5102320;28;20219;-66
2021/01/29 04:14:03;;;;;;;9.77;7.20;;;;;;;;;;5101592;28;20652;-67
2021/01/29 04:16:34;;;;;;;8.63;6.93;;;;;;;;;;5102034;28;20227;-66
2021/01/29 04:19:02;;;;;;;10.33;7.60;;;;;;;;;;5102086;28;20284;-65
2021/01/29 04:21:31;;;;;;;9.80;6.97;;;;;;;;;;5102032;28;20235;-67
2021/01/29 04:24:00;;;;;;;10.07;7.83;;;;;;;;;;5101541;28;20227;-68
2021/01/29 04:26:29;;;;;;;8.73;6.77;;;;;;;;;;5101380;28;20212;-68
2021/01/29 04:28:58;;;;;;;8.07;6.83;;;;;;;;;;5101467;28;20239;-68
2021/01/29 04:31:26;;;;;;;9.67;7.10;;;;;;;;;;5101583;28;20289;-66
2021/01/29 04:33:57;;;;;;;11.20;7.53;;;;;;;;;;5101604;28;20209;-67
2021/01/29 04:36:28;;;;;;;7.93;6.77;;;;;;;;;;5101623;28;20229;-69
2021/01/29 04:38:57;;;;;;;12.73;7.30;;;;;;;;;;5101597;28;20688;-66
2021/01/29 04:41:33;;;;;;;9.23;6.47;;;;;;;;;;5101074;28;20210;-68
2021/01/29 04:44:19;;;;;;;9.33;7.00;;;;;;;;;;5100992;28;20209;-69
2021/01/29 04:46:53;;;;;;;8.40;7.07;;;;;;;;;;5101286;28;20712;-67
2021/01/29 04:49:24;;;;;;;10.33;7.00;;;;;;;;;;5101526;28;20207;-68
2021/01/29 04:52:09;;;;;;;11.13;6.87;;;;;;;;;;5101798;28;20206;-69
2021/01/29 04:54:40;;;;;;;9.97;6.60;;;;;;;;;;5100953;28;20227;-67
2021/01/29 04:57:20;;;;;;;8.43;6.63;;;;;;;;;;5101115;28;20542;-67
2021/01/29 04:59:58;;;;;;;8.80;6.43;;;;;;;;;;5100799;28;20205;-68
2021/01/29 05:02:46;;;;;;;7.73;6.57;;;;;;;;;;5101071;28;20209;-67
2021/01/29 05:05:40;;;;;;;9.50;7.17;;;;;;;;;;5100827;28;20268;-67
2021/01/29 05:08:40;;;;;;;7.10;5.90;;;;;;;;;;5097219;28;20312;-68
2021/01/29 05:11:13;;;;;;;7.23;6.03;;;;;;;;;;5038224;28;20581;-69
2021/01/29 05:13:59;;;;;;;9.50;6.60;;;;;;;;;;5038279;28;20271;-68
2021/01/29 05:16:36;;;;;;;9.40;6.97;;;;;;;;;;5076869;28;20201;-67
2021/01/29 05:19:19;;;;;;;18.97;13.00;;;;;;;;;;5100285;28;20724;-66
2021/01/29 05:21:53;;;;;;;13.50;7.73;;;;;;;;;;5100364;28;20206;-67
2021/01/29 05:24:47;;;;;;;9.97;6.93;;;;;;;;;;5100687;28;20257;-67
2021/01/29 05:27:34;;;;;;;12.47;6.67;;;;;;;;;;5064823;28;20225;-66
2021/01/29 05:30:07;;;;;;;8.53;6.80;;;;;;;;;;5100195;28;20641;-66
2021/01/29 05:32:43;;;;;;;11.63;7.00;;;;;;;;;;5101322;28;20216;-66
2021/01/29 05:35:26;;;;;;;8.73;7.50;;;;;;;;;;5103354;28;20237;-67
2021/01/29 05:38:04;;;;;;;12.87;7.63;;;;;;;;;;5098891;28;20664;-69
2021/01/29 05:40:46;;;;;;;7.83;6.63;;;;;;;;;;5099043;28;20210;-68
2021/01/29 05:43:31;;;;;;;10.77;8.03;;;;;;;;;;5092389;28;20226;-68
2021/01/29 05:46:04;;;;;;;9.80;7.00;;;;;;;;;;5094726;28;20231;-67
2021/01/29 05:48:52;;;;;;;9.03;7.70;;;;;;;;;;5099842;28;20760;-67
2021/01/29 05:51:39;;;;;;;10.60;7.83;;;;;;;;;;5095062;28;20259;-67
2021/01/29 05:54:20;;;;;;;13.17;8.47;;;;;;;;;;5099755;28;20629;-66
2021/01/29 05:57:02;;;;;;;13.30;8.33;;;;;;;;;;5099834;28;20205;-68
2021/01/29 05:59:39;;;;;;;14.83;8.90;;;;;;;;;;5099673;28;20232;-66
2021/01/29 06:02:15;;;;;;;11.17;8.33;;;;;;;;;;5100022;28;20205;-67
2021/01/29 06:05:02;;;;;;;9.27;7.63;;;;;;;;;;5100026;28;20312;-66
2021/01/29 06:07:47;;;;;;;10.20;8.30;;;;;;;;;;5087093;28;20279;-66
2021/01/29 06:10:40;;;;;;;9.23;7.20;;;;;;;;;;5099962;28;20208;-66
2021/01/29 06:13:22;;;;;;;9.83;7.17;;;;;;;;;;5099660;28;20215;-66
2021/01/29 06:16:12;;;;;;;9.50;7.93;;;;;;;;;;5099459;28;20308;-66
2021/01/29 06:18:47;;;;;;;10.73;7.60;;;;;;;;;;5060962;28;20380;-67
2021/01/29 06:21:50;;;;;;;9.50;7.00;;;;;;;;;;5099474;28;20213;-67
2021/01/29 06:24:38;;;;;;;11.30;8.13;;;;;;;;;;5099369;28;20664;-67
2021/01/29 06:27:30;;;;;;;9.97;7.63;;;;;;;;;;5094184;28;20225;-67
2021/01/29 06:30:13;;;;;;;9.40;6.67;;;;;;;;;;5099453;28;20269;-68
2021/01/29 06:33:00;;;;;;;11.50;7.63;;;;;;;;;;5099575;28;20237;-68
2021/01/29 06:35:45;;;;;;;10.33;7.70;;;;;;;;;;5099106;28;20248;-67
2021/01/29 06:38:39;;;;;;;16.53;9.37;;;;;;;;;;5098859;28;20642;-67
2021/01/29 06:41:33;;;;;;;10.40;8.40;;;;;;;;;;5063088;28;20210;-67
2021/01/29 06:44:10;;;;;;;11.63;8.60;;;;;;;;;;5098471;28;20285;-67
2021/01/29 06:46:46;;;;;;;15.03;10.03;;;;;;;;;;5099657;28;20209;-67
2021/01/29 06:49:25;;;;;;;14.50;10.30;;;;;;;;;;5100653;28;20197;-67
2021/01/29 06:52:24;;;;;;;14.27;10.07;;;;;;;;;;5101197;28;20296;-68
2021/01/29 06:55:09;;;;;;;14.30;8.13;;;;;;;;;;5099306;28;20229;-68
2021/01/29 06:58:06;;;;;;;11.07;8.53;;;;;;;;;;5098767;28;20205;-66
2021/01/29 07:00:41;;;;;;;14.13;7.77;;;;;;;;;;5036532;28;20212;-66
2021/01/29 07:03:38;;;;;;;10.10;8.13;;;;;;;;;;5087689;28;20660;-66
2021/01/29 07:06:25;;;;;;;11.13;6.83;;;;;;;;;;5098716;28;20225;-68
2021/01/29 07:09:07;;;;;;;15.10;9.97;;;;;;;;;;5098591;28;20251;-68
2021/01/29 07:11:50;;;;;;;9.53;6.83;;;;;;;;;;5098652;28;20292;-68
2021/01/29 07:14:25;;;;;;;10.07;6.87;;;;;;;;;;5098056;28;20225;-67
2021/01/29 07:17:15;;;;;;;7.33;5.47;;;;;;;;;;5098472;28;20229;-66
2021/01/29 07:20:00;;;;;;;5.87;5.03;;;;;;;;;;5096589;28;20204;-66
2021/01/29 07:22:46;;;;;;;8.53;6.70;;;;;;;;;;5097379;28;20209;-68
2021/01/29 07:25:15;;;;;;;6.90;5.77;;;;;;;;;;5095177;28;20225;-67
2021/01/29 07:27:46;;;;;;;6.30;5.23;;;;;;;;;;5097377;28;20229;-68
2021/01/29 07:30:28;;;;;;;5.53;4.43;;;;;;;;;;5097428;28;20202;-68
2021/01/29 07:33:01;;;;;;;5.83;4.70;;;;;;;;;;5088832;28;20265;-69
2021/01/29 07:35:33;;;;;;;5.30;4.40;;;;;;;;;;5097708;28;20222;-67
2021/01/29 07:38:25;;;;;;;7.60;5.53;;;;;;;;;;5097654;28;20676;-68
2021/01/29 07:41:11;;;;;;;8.60;5.30;;;;;;;;;;5081979;28;20296;-68
2021/01/29 07:43:58;;;;;;;5.30;3.80;;;;;;;;;;5094560;28;20579;-67
2021/01/29 07:46:37;;;;;;;4.03;2.43;;;;;;;;;;5088763;28;20270;-68
2021/01/29 07:49:25;;;;;;;2.20;2.00;;;;;;;;;;5098614;28;20641;-68
2021/01/29 07:51:54;;;;;;;2.10;1.90;;;;;;;;;;5071551;28;20207;-67
2021/01/29 07:54:48;;;;;;;1.87;1.60;;;;;;;;;;5097057;28;20232;-68
2021/01/29 07:57:20;;;;;;;2.50;1.57;;;;;;;;;;5072392;28;20205;-69
2021/01/29 08:00:08;;;;;;;2.83;1.20;;;;;;;;;;5097478;28;20213;-68
2021/01/29 08:02:48;;;;;;;1.33;1.00;;;;;;;;;;5092650;28;20208;-69
2021/01/29 08:05:23;;;;;;;2.07;1.00;;;;;;;;;;5094080;28;20232;-70
2021/01/29 08:07:53;;;;;;;1.10;1.00;;;;;;;;;;5097140;28;20571;-70
2021/01/29 08:10:26;;;;;;;0.70;0.70;;;;;;;;;;5097277;28;20233;-70
2021/01/29 08:13:03;;;;;;;1.23;0.80;;;;;;;;;;5097051;28;20222;-69
2021/01/29 08:15:30;;;;;;;2.83;0.93;;;;;;;;;;5097340;28;20636;-70
2021/01/29 08:18:06;;;;;;;2.43;0.80;;;;;;;;;;5097092;28;20205;-69
2021/01/29 08:20:53;;;;;;;0.80;0.70;;;;;;;;;;5097007;28;20297;-70
2021/01/29 08:23:27;;;;;;;1.00;0.80;;;;;;;;;;5092114;28;20708;-70
2021/01/29 08:26:09;;;;;;;1.10;0.73;;;;;;;;;;5094738;28;20717;-70
2021/01/29 08:29:00;;;;;;;0.67;0.50;;;;;;;;;;5096551;28;20664;-70
2021/01/29 08:31:39;;;;;;;1.23;0.60;;;;;;;;;;5090011;28;20289;-70
2021/01/29 08:34:25;;;;;;;2.03;0.80;;;;;;;;;;5095868;28;20594;-69
2021/01/29 08:37:11;;;;;;;3.70;0.77;;;;;;;;;;5095384;28;20209;-69
2021/01/29 08:39:44;;;;;;;2.27;0.73;;;;;;;;;;5096390;28;20276;-70
2021/01/29 08:42:14;;;;;;;1.00;0.90;;;;;;;;;;5096748;28;20658;-70
2021/01/29 08:45:02;;;;;;;0.80;0.80;;;;;;;;;;5096741;28;20225;-70
2021/01/29 08:47:39;;;;;;;5.07;1.47;;;;;;;;;;5096135;28;20585;-70
2021/01/29 08:50:18;;;;;;;4.43;1.00;;;;;;;;;;5096752;28;20216;-70
2021/01/29 08:52:58;;;;;;;2.83;1.20;;;;;;;;;;5093717;28;20202;-69
2021/01/29 08:55:30;;;;;;;3.20;1.27;;;;;;;;;;5099712;28;20229;-69
2021/01/29 08:58:02;;;;;;;4.33;1.60;;;;;;;;;;5100417;28;20211;-68
2021/01/29 09:00:31;;;;;;;4.27;1.47;;;;;;;;;;5100294;28;20209;-67
2021/01/29 09:03:07;;;;;;;2.13;1.30;;;;;;;;;;5100561;28;20209;-69
2021/01/29 09:05:35;;;;;;;3.40;1.23;;;;;;;;;;5098566;28;20579;-69
2021/01/29 09:08:04;;;;;;;2.50;1.50;;;;;;;;;;5100438;28;20221;-69
2021/01/29 09:10:50;;;;;;;3.87;1.07;;;;;;;;;;5100223;28;20233;-70
2021/01/29 09:13:20;;;;;;;1.73;1.03;;;;;;;;;;5098078;28;20618;-69
2021/01/29 09:15:50;;;;;;;3.63;1.00;;;;;;;;;;5100239;28;20232;-69
2021/01/29 09:18:21;;;;;;;4.73;1.33;;;;;;;;;;5100081;28;21433;-69
2021/01/29 09:20:59;;;;;;;1.10;0.87;;;;;;;;;;5099582;28;20615;-70
2021/01/29 09:23:28;;;;;;;2.23;0.73;;;;;;;;;;5100201;28;20201;-71
2021/01/29 09:26:00;;;;;;;1.33;0.70;;;;;;;;;;5100119;28;20252;-69
2021/01/29 09:28:29;;;;;;;1.50;0.60;;;;;;;;;;5099958;28;20308;-70
2021/01/29 09:30:57;;;;;;;1.63;0.70;;;;;;;;;;5099919;28;20220;-67
2021/01/29 09:33:27;;;;;;;4.03;0.80;;;;;;;;;;5100012;28;20209;-68
2021/01/29 09:35:56;;;;;;;5.03;1.00;;;;;;;;;;5099432;28;20222;-67
2021/01/29 09:38:25;;;;;;;3.13;0.60;;;;;;;;;;5096319;28;20257;-66
2021/01/29 09:41:01;;;;;;;4.67;1.10;;;;;;;;;;5099768;28;20210;-67
2021/01/29 09:43:55;;;;;;;1.83;0.83;;;;;;;;;;5104146;28;20211;-68
2021/01/29 09:46:25;;;;;;;2.27;0.70;;;;;;;;;;5074838;28;20611;-68
2021/01/29 09:48:57;;;;;;;1.33;0.67;;;;;;;;;;5099842;28;20233;-68
2021/01/29 09:51:31;;;;;;;1.50;0.50;;;;;;;;;;5100352;28;20210;-68
2021/01/29 09:54:01;;;;;;;1.33;0.97;;;;;;;;;;5100008;28;20236;-69
2021/01/29 09:56:32;;;;;;;2.00;0.70;;;;;;;;;;5099617;28;20247;-69
2021/01/29 09:59:17;;;;;;;4.80;0.63;;;;;;;;;;5099254;28;20220;-68
2021/01/29 10:01:48;;;;;;;0.73;0.70;;;;;;;;;;5091634;28;20283;-69
2021/01/29 10:04:20;;;;;;;0.77;0.60;;;;;;;;;;5099222;28;20715;-70
2021/01/29 10:06:50;;;;;;;1.10;0.70;;;;;;;;;;5090770;28;20205;-68
2021/01/29 10:09:20;;;;;;;1.93;0.77;;;;;;;;;;5099198;28;20288;-68
2021/01/29 10:11:56;;;;;;;3.80;0.90;;;;;;;;;;5091173;28;20202;-68
2021/01/29 10:14:25;;;;;;;2.87;0.97;;;;;;;;;;5098724;28;20271;-68
2021/01/29 10:16:54;;;;;;;3.90;0.70;;;;;;;;;;5099144;28;20220;-68
2021/01/29 10:19:28;;;;;;;3.33;0.70;;;;;;;;;;5098790;28;20568;-69
2021/01/29 10:22:22;;;;;;;3.60;0.80;;;;;;;;;;5091662;28;20574;-68
2021/01/29 10:24:54;;;;;;;3.10;0.97;;;;;;;;;;5096171;28;20225;-68
2021/01/29 10:27:26;;;;;;;3.57;0.80;;;;;;;;;;5098499;28;20210;-68
2021/01/29 10:29:58;;;;;;;2.60;1.00;;;;;;;;;;5098947;28;20212;-68
2021/01/29 10:32:27;;;;;;;4.60;0.90;;;;;;;;;;5098929;28;20656;-73
2021/01/29 10:34:55;;;;;;;4.73;1.30;;;;;;;;;;5098788;28;20229;-68
2021/01/29 10:37:24;;;;;;;5.60;1.43;;;;;;;;;;5096220;28;20209;-68
2021/01/29 10:40:07;;;;;;;2.97;0.90;;;;;;;;;;5098562;28;20229;-69
2021/01/29 10:42:40;;;;;;;3.30;0.87;;;;;;;;;;5095121;28;20206;-68
2021/01/29 10:45:08;;;;;;;1.60;0.70;;;;;;;;;;5098389;28;20225;-69
2021/01/29 10:47:46;;;;;;;1.17;0.93;;;;;;;;;;5095686;28;20224;-68
2021/01/29 10:50:18;;;;;;;6.27;1.40;;;;;;;;;;5098329;28;20205;-68
2021/01/29 10:52:59;;;;;;;4.30;1.00;;;;;;;;;;5098428;28;20241;-67
2021/01/29 10:55:27;;;;;;;4.33;1.20;;;;;;;;;;5091277;28;20235;-68
2021/01/29 10:58:02;;;;;;;3.40;1.00;;;;;;;;;;5097641;28;20198;-67
2021/01/29 11:00:31;;;;;;;4.07;1.17;;;;;;;;;;5098228;28;20648;-68
2021/01/29 11:03:04;;;;;;;4.20;1.13;;;;;;;;;;5097707;28;20223;-68
2021/01/29 11:05:32;;;;;;;2.57;1.00;;;;;;;;;;5098055;28;20583;-67
2021/01/29 11:08:03;;;;;;;3.03;1.20;;;;;;;;;;5097809;28;20294;-68
2021/01/29 11:10:31;;;;;;;3.83;1.10;;;;;;;;;;5098212;28;20284;-69
2021/01/29 11:13:02;;;;;;;2.07;0.97;;;;;;;;;;5097302;28;20299;-66
2021/01/29 11:15:35;;;;;;;3.20;1.00;;;;;;;;;;5097862;28;20595;-69
2021/01/29 11:18:09;;;;;;;2.13;0.97;;;;;;;;;;5096813;28;20280;-69
2021/01/29 11:20:38;;;;;;;3.23;1.03;;;;;;;;;;5098057;28;20211;-68
2021/01/29 11:23:09;;;;;;;8.90;1.33;;;;;;;;;;5097546;28;20209;-68
2021/01/29 11:25:49;;;;;;;6.27;1.23;;;;;;;;;;5097914;28;20308;-68
2021/01/29 11:28:28;;;;;;;3.97;1.43;;;;;;;;;;5096950;28;20707;-69
2021/01/29 11:31:02;;;;;;;3.00;1.00;;;;;;;;;;5097516;28;20260;-68
2021/01/29 11:33:32;;;;;;;6.10;1.03;;;;;;;;;;5097909;28;20655;-68
2021/01/29 11:36:01;;;;;;;3.23;1.20;;;;;;;;;;5097114;28;20244;-67
2021/01/29 11:38:37;;;;;;;1.93;1.27;;;;;;;;;;5089027;28;20232;-67
2021/01/29 11:41:10;;;;;;;5.67;1.60;;;;;;;;;;5098145;28;20205;-69
2021/01/29 11:43:40;;;;;;;3.10;1.10;;;;;;;;;;5103412;28;20209;-69
2021/01/29 11:46:25;;;;;;;4.43;1.90;;;;;;;;;;5103037;28;20236;-70
2021/01/29 11:48:57;;;;;;;6.60;1.13;;;;;;;;;;5098384;28;20233;-68
2021/01/29 11:51:31;;;;;;;4.87;1.23;;;;;;;;;;5098143;28;20215;-67
2021/01/29 11:54:12;;;;;;;7.13;1.20;;;;;;;;;;5098076;28;20240;-69
2021/01/29 11:56:40;;;;;;;3.60;1.30;;;;;;;;;;5098069;28;20269;-68
2021/01/29 11:59:12;;;;;;;4.37;1.30;;;;;;;;;;5097575;28;20202;-69
2021/01/29 12:01:40;;;;;;;3.23;1.40;;;;;;;;;;5098137;28;20210;-69
2021/01/29 12:04:22;;;;;;;3.70;1.27;;;;;;;;;;5097702;28;20209;-68
2021/01/29 12:06:52;;;;;;;4.80;1.33;;;;;;;;;;5097968;28;20208;-69
2021/01/29 12:09:23;;;;;;;4.27;1.30;;;;;;;;;;5097679;28;20228;-69
2021/01/29 12:12:00;;;;;;;5.77;0.90;;;;;;;;;;5098023;28;20209;-67
2021/01/29 12:14:30;;;;;;;6.57;1.30;;;;;;;;;;5097556;28;20320;-68
2021/01/29 12:16:58;;;;;;;3.93;1.20;;;;;;;;;;5097878;28;20209;-68
2021/01/29 12:19:29;;;;;;;3.27;1.50;;;;;;;;;;5097883;28;20201;-67
2021/01/29 12:22:04;;;;;;;3.87;1.20;;;;;;;;;;5097902;28;20205;-69
2021/01/29 12:24:35;;;;;;;3.33;1.20;;;;;;;;;;5097521;28;20221;-68
2021/01/29 12:27:05;;;;;;;2.33;1.10;;;;;;;;;;5097139;28;20288;-68
2021/01/29 12:29:37;;;;;;;4.00;1.60;;;;;;;;;;5099191;28;20235;-68
2021/01/29 12:32:27;;;;;;;4.23;0.93;;;;;;;;;;5101522;28;20285;-68
2021/01/29 12:34:59;;;;;;;4.50;1.30;;;;;;;;;;5089407;28;20612;-65
2021/01/29 12:37:29;;;;;;;2.07;0.90;;;;;;;;;;5087351;28;20194;-67
2021/01/29 12:39:57;;;;;;;4.33;1.03;;;;;;;;;;5094352;28;20226;-67
2021/01/29 12:42:27;;;;;;;6.00;1.00;;;;;;;;;;5098931;28;20205;-68
2021/01/29 12:44:56;;;;;;;5.37;1.23;;;;;;;;;;5100033;28;20756;-66
2021/01/29 12:47:27;;;;;;;2.50;1.10;;;;;;;;;;5103116;28;20240;-67
2021/01/29 12:49:57;;;;;;;5.30;1.20;;;;;;;;;;5103087;28;20221;-67
2021/01/29 12:52:27;;;;;;;3.20;1.60;;;;;;;;;;5101931;28;20233;-68
2021/01/29 12:55:02;;;;;;;3.90;1.07;;;;;;;;;;5089661;28;20312;-68
2021/01/29 12:57:30;;;;;;;3.30;1.03;;;;;;;;;;5098984;28;20205;-68
2021/01/29 13:00:05;;;;;;;3.47;1.00;;;;;;;;;;5098158;28;20217;-70
2021/01/29 13:02:47;;;;;;;3.43;1.30;;;;;;;;;;5099967;28;20213;-66
2021/01/29 13:05:21;;;;;;;5.30;0.97;;;;;;;;;;5098756;28;20833;-68
2021/01/29 13:07:59;;;;;;;5.23;1.13;;;;;;;;;;5100069;28;20239;-68
2021/01/29 13:10:30;;;;;;;4.43;1.03;;;;;;;;;;5101268;28;20209;-67
2021/01/29 13:13:04;;;;;;;4.13;1.40;;;;;;;;;;5096800;28;20224;-68
2021/01/29 13:15:39;;;;;;;3.90;1.30;;;;;;;;;;5100007;28;20711;-66
2021/01/29 13:18:13;;;;;;;3.43;1.10;;;;;;;;;;5093180;28;20201;-67
2021/01/29 13:20:43;;;;;;;3.20;1.23;;;;;;;;;;5099738;28;20211;-66
2021/01/29 13:23:17;;;;;;;4.30;1.30;;;;;;;;;;5091745;28;20284;-66
2021/01/29 13:25:54;;;;;;;4.83;1.40;;;;;;;;;;5098997;28;20248;-66
2021/01/29 13:28:21;;;;;;;4.30;1.63;;;;;;;;;;5093725;28;20665;-66
2021/01/29 13:30:48;;;;;;;3.03;0.83;;;;;;;;;;5099821;28;20216;-66
2021/01/29 13:33:17;;;;;;;3.30;1.50;;;;;;;;;;5098116;28;20200;-68
2021/01/29 13:35:45;;;;;;;4.20;1.10;;;;;;;;;;5100054;28;20226;-68
2021/01/29 13:38:15;;;;;;;3.07;0.90;;;;;;;;;;5098914;28;20229;-68
2021/01/29 13:40:44;;;;;;;4.27;1.07;;;;;;;;;;5097057;28;20668;-68
2021/01/29 13:43:15;;;;;;;1.40;0.73;;;;;;;;;;5099956;28;20225;-68
2021/01/29 13:45:42;;;;;;;5.80;1.23;;;;;;;;;;5098855;28;20221;-68
2021/01/29 13:48:16;;;;;;;4.97;1.80;;;;;;;;;;5098703;28;20201;-68
2021/01/29 13:50:45;;;;;;;17.57;2.80;;;;;;;;;;5097168;28;20644;-68
2021/01/29 13:53:15;;;;;;;7.23;1.67;;;;;;;;;;5098107;28;20261;-68
2021/01/29 13:55:45;;;;;;;3.47;1.13;;;;;;;;;;5098479;28;20228;-68
2021/01/29 13:58:15;;;;;;;5.03;1.07;;;;;;;;;;5098188;28;20237;-68
2021/01/29 14:00:45;;;;;;;1.77;0.90;;;;;;;;;;5097929;28;20236;-68
2021/01/29 14:03:15;;;;;;;4.60;1.23;;;;;;;;;;5098379;28;20202;-66
2021/01/29 14:05:43;;;;;;;3.50;1.00;;;;;;;;;;5097318;28;20229;-68
2021/01/29 14:08:11;;;;;;;6.63;1.57;;;;;;;;;;5097136;28;20686;-68
2021/01/29 14:10:40;;;;;;;3.27;1.17;;;;;;;;;;5098437;28;20293;-69
2021/01/29 14:13:14;;;;;;;4.83;1.70;;;;;;;;;;5099470;28;20633;-69
2021/01/29 14:15:47;;;;;;;4.70;1.70;;;;;;;;;;5098142;28;20714;-69
2021/01/29 14:18:22;;;;;;;3.10;1.17;;;;;;;;;;5096584;28;20255;-68
2021/01/29 14:20:51;;;;;;;4.87;1.10;;;;;;;;;;5098054;28;20223;-68
2021/01/29 14:23:21;;;;;;;7.70;1.37;;;;;;;;;;5098567;28;20284;-68
2021/01/29 14:25:51;;;;;;;2.97;1.10;;;;;;;;;;5098088;28;20221;-68
2021/01/29 14:28:24;;;;;;;2.60;1.63;;;;;;;;;;5098243;28;20198;-68
2021/01/29 14:30:57;;;;;;;3.47;1.10;;;;;;;;;;5097933;28;20281;-68
2021/01/29 14:33:28;;;;;;;4.27;1.00;;;;;;;;;;5098301;28;20288;-68
2021/01/29 14:36:00;;;;;;;3.73;0.90;;;;;;;;;;5096374;28;20240;-67
2021/01/29 14:38:48;;;;;;;5.97;1.13;;;;;;;;;;5097491;28;20229;-68
2021/01/29 14:41:18;;;;;;;3.00;0.83;;;;;;;;;;5092470;28;20202;-68
2021/01/29 14:43:58;;;;;;;3.13;1.30;;;;;;;;;;5097502;28;20554;-68
2021/01/29 14:46:37;;;;;;;2.63;1.47;;;;;;;;;;5096131;28;20201;-68
2021/01/29 14:49:13;;;;;;;4.07;1.33;;;;;;;;;;5097685;28;20225;-67
2021/01/29 14:51:45;;;;;;;5.27;1.10;;;;;;;;;;5097673;28;20672;-69
2021/01/29 14:54:15;;;;;;;11.07;1.90;;;;;;;;;;5097515;28;20217;-68
2021/01/29 14:56:44;;;;;;;7.03;1.23;;;;;;;;;;5097885;28;20225;-67
2021/01/29 14:59:15;;;;;;;6.43;1.50;;;;;;;;;;5097292;28;20236;-67
2021/01/29 15:01:46;;;;;;;3.57;1.17;;;;;;;;;;5098399;28;20633;-67
2021/01/29 15:04:16;;;;;;;4.57;1.10;;;;;;;;;;5097653;28;20273;-67
2021/01/29 15:06:43;;;;;;;6.30;1.67;;;;;;;;;;5097940;28;20204;-68
2021/01/29 15:09:15;;;;;;;2.97;1.23;;;;;;;;;;5097522;28;20752;-68
2021/01/29 15:11:48;;;;;;;8.20;1.53;;;;;;;;;;5092092;28;20198;-67
2021/01/29 15:14:33;;;;;;;2.30;1.63;;;;;;;;;;5084869;28;20222;-67
2021/01/29 15:17:02;;;;;;;2.73;1.03;;;;;;;;;;5085104;28;20259;-67
2021/01/29 15:19:31;;;;;;;2.73;1.40;;;;;;;;;;5087896;28;20225;-67
2021/01/29 15:21:59;;;;;;;3.77;1.13;;;;;;;;;;5093704;28;20206;-67